sensor_id;sensor_type;location;lat;lon;timestamp;temperature;humidity
56256;DHT22;57229;51.432;-2.598;2022-07-06T00:01:58;14.50;99.90
56256;DHT22;57229;51.432;-2.598;2022-07-06T00:04:24;14.40;99.90
56256;DHT22;57229;51.432;-2.598;2022-07-06T00:06:50;14.40;99.90
56256;DHT22;57229;51.432;-2.598;2022-07-06T00:09:16;14.50;99.90
56256;DHT22;57229;51.432;-2.598;2022-07-06T00:11:42;14.40;99.90
56256;DHT22;57229;51.432;-2.598;2022-07-06T00:14:07;14.40;99.90
56256;DHT22;57229;51.432;-2.598;2022-07-06T00:16:33;14.30;99.90
56256;DHT22;57229;51.432;-2.598;2022-07-06T00:18:59;14.30;99.90
56256;DHT22;57229;51.432;-2.598;2022-07-06T00:21:25;14.10;99.90
56256;DHT22;57229;51.432;-2.598;2022-07-06T00:23:50;14.00;99.90
56256;DHT22;57229;51.432;-2.598;2022-07-06T00:26:20;13.90;99.90
56256;DHT22;57229;51.432;-2.598;2022-07-06T00:28:45;13.80;99.90
56256;DHT22;57229;51.432;-2.598;2022-07-06T00:31:12;13.70;99.90
56256;DHT22;57229;51.432;-2.598;2022-07-06T00:33:38;13.80;99.90
56256;DHT22;57229;51.432;-2.598;2022-07-06T00:36:04;13.80;99.90
56256;DHT22;57229;51.432;-2.598;2022-07-06T00:38:30;13.80;99.90
56256;DHT22;57229;51.432;-2.598;2022-07-06T00:40:55;13.80;99.90
56256;DHT22;57229;51.432;-2.598;2022-07-06T00:43:21;13.80;99.90
56256;DHT22;57229;51.432;-2.598;2022-07-06T00:45:47;13.80;99.90
56256;DHT22;57229;51.432;-2.598;2022-07-06T00:48:12;13.90;99.90
56256;DHT22;57229;51.432;-2.598;2022-07-06T00:50:39;13.80;99.90
56256;DHT22;57229;51.432;-2.598;2022-07-06T00:53:37;13.90;99.90
56256;DHT22;57229;51.432;-2.598;2022-07-06T00:56:03;13.90;99.90
56256;DHT22;57229;51.432;-2.598;2022-07-06T00:58:29;13.90;99.90
56256;DHT22;57229;51.432;-2.598;2022-07-06T01:00:55;14.00;99.90
56256;DHT22;57229;51.432;-2.598;2022-07-06T01:03:20;14.00;99.90
56256;DHT22;57229;51.432;-2.598;2022-07-06T01:05:46;14.00;99.90
56256;DHT22;57229;51.432;-2.598;2022-07-06T01:08:12;13.90;99.90
56256;DHT22;57229;51.432;-2.598;2022-07-06T01:10:38;13.80;99.90
56256;DHT22;57229;51.432;-2.598;2022-07-06T01:13:04;13.70;99.90
56256;DHT22;57229;51.432;-2.598;2022-07-06T01:15:30;13.60;99.90
56256;DHT22;57229;51.432;-2.598;2022-07-06T01:17:56;13.60;99.90
56256;DHT22;57229;51.432;-2.598;2022-07-06T01:20:25;13.60;99.90
56256;DHT22;57229;51.432;-2.598;2022-07-06T01:22:52;13.60;99.90
56256;DHT22;57229;51.432;-2.598;2022-07-06T01:25:18;13.60;99.90
56256;DHT22;57229;51.432;-2.598;2022-07-06T01:27:44;13.60;99.90
56256;DHT22;57229;51.432;-2.598;2022-07-06T01:30:16;13.50;99.90
56256;DHT22;57229;51.432;-2.598;2022-07-06T01:32:42;13.50;99.90
56256;DHT22;57229;51.432;-2.598;2022-07-06T01:35:11;13.40;99.90
56256;DHT22;57229;51.432;-2.598;2022-07-06T01:37:37;13.40;99.90
56256;DHT22;57229;51.432;-2.598;2022-07-06T01:40:05;13.30;99.90
56256;DHT22;57229;51.432;-2.598;2022-07-06T01:42:32;13.30;99.90
56256;DHT22;57229;51.432;-2.598;2022-07-06T01:44:58;13.30;99.90
56256;DHT22;57229;51.432;-2.598;2022-07-06T01:47:23;13.30;99.90
56256;DHT22;57229;51.432;-2.598;2022-07-06T01:49:49;13.30;99.90
56256;DHT22;57229;51.432;-2.598;2022-07-06T01:52:15;13.30;99.90
56256;DHT22;57229;51.432;-2.598;2022-07-06T01:54:41;13.30;99.90
56256;DHT22;57229;51.432;-2.598;2022-07-06T01:57:07;13.30;99.90
56256;DHT22;57229;51.432;-2.598;2022-07-06T01:59:33;13.20;99.90
56256;DHT22;57229;51.432;-2.598;2022-07-06T02:02:00;13.10;99.90
56256;DHT22;57229;51.432;-2.598;2022-07-06T02:04:25;13.10;99.90
56256;DHT22;57229;51.432;-2.598;2022-07-06T02:06:51;13.00;99.90
56256;DHT22;57229;51.432;-2.598;2022-07-06T02:09:17;13.10;99.90
56256;DHT22;57229;51.432;-2.598;2022-07-06T02:11:43;13.10;99.90
56256;DHT22;57229;51.432;-2.598;2022-07-06T02:14:10;13.00;99.90
56256;DHT22;57229;51.432;-2.598;2022-07-06T02:16:36;13.00;99.90
56256;DHT22;57229;51.432;-2.598;2022-07-06T02:19:02;13.00;99.90
56256;DHT22;57229;51.432;-2.598;2022-07-06T02:21:28;13.10;99.90
56256;DHT22;57229;51.432;-2.598;2022-07-06T02:23:53;13.20;99.90
56256;DHT22;57229;51.432;-2.598;2022-07-06T02:26:19;13.40;99.90
56256;DHT22;57229;51.432;-2.598;2022-07-06T02:28:44;13.50;99.90
56256;DHT22;57229;51.432;-2.598;2022-07-06T02:31:13;13.60;99.90
56256;DHT22;57229;51.432;-2.598;2022-07-06T02:33:39;13.70;99.90
56256;DHT22;57229;51.432;-2.598;2022-07-06T02:36:05;13.70;99.90
56256;DHT22;57229;51.432;-2.598;2022-07-06T02:38:31;13.80;99.90
56256;DHT22;57229;51.432;-2.598;2022-07-06T02:40:57;13.80;99.90
56256;DHT22;57229;51.432;-2.598;2022-07-06T02:43:22;13.80;99.90
56256;DHT22;57229;51.432;-2.598;2022-07-06T02:45:48;13.90;99.90
56256;DHT22;57229;51.432;-2.598;2022-07-06T02:48:14;13.90;99.90
56256;DHT22;57229;51.432;-2.598;2022-07-06T02:50:39;13.80;99.90
56256;DHT22;57229;51.432;-2.598;2022-07-06T02:53:05;13.90;99.90
56256;DHT22;57229;51.432;-2.598;2022-07-06T02:55:31;13.80;99.90
56256;DHT22;57229;51.432;-2.598;2022-07-06T02:57:56;13.90;99.90
56256;DHT22;57229;51.432;-2.598;2022-07-06T03:00:43;13.90;99.90
56256;DHT22;57229;51.432;-2.598;2022-07-06T03:03:08;14.00;99.90
56256;DHT22;57229;51.432;-2.598;2022-07-06T03:05:35;14.10;99.90
56256;DHT22;57229;51.432;-2.598;2022-07-06T03:08:01;14.20;99.90
56256;DHT22;57229;51.432;-2.598;2022-07-06T03:10:27;14.30;99.90
56256;DHT22;57229;51.432;-2.598;2022-07-06T03:12:53;14.50;99.90
56256;DHT22;57229;51.432;-2.598;2022-07-06T03:15:19;14.50;99.90
56256;DHT22;57229;51.432;-2.598;2022-07-06T03:17:44;14.60;99.90
56256;DHT22;57229;51.432;-2.598;2022-07-06T03:20:11;14.70;99.90
56256;DHT22;57229;51.432;-2.598;2022-07-06T03:22:36;14.70;99.90
56256;DHT22;57229;51.432;-2.598;2022-07-06T03:25:02;14.70;99.90
56256;DHT22;57229;51.432;-2.598;2022-07-06T03:27:28;14.80;99.90
56256;DHT22;57229;51.432;-2.598;2022-07-06T03:29:53;14.90;99.90
56256;DHT22;57229;51.432;-2.598;2022-07-06T03:32:19;14.90;99.90
56256;DHT22;57229;51.432;-2.598;2022-07-06T03:34:45;15.00;99.90
56256;DHT22;57229;51.432;-2.598;2022-07-06T03:37:10;15.00;99.90
56256;DHT22;57229;51.432;-2.598;2022-07-06T03:39:36;14.90;99.90
56256;DHT22;57229;51.432;-2.598;2022-07-06T03:42:02;14.80;99.90
56256;DHT22;57229;51.432;-2.598;2022-07-06T03:44:27;14.70;99.90
56256;DHT22;57229;51.432;-2.598;2022-07-06T03:46:53;14.80;99.90
56256;DHT22;57229;51.432;-2.598;2022-07-06T03:49:21;14.60;99.90
56256;DHT22;57229;51.432;-2.598;2022-07-06T03:51:47;14.50;99.90
56256;DHT22;57229;51.432;-2.598;2022-07-06T03:54:12;14.40;99.90
56256;DHT22;57229;51.432;-2.598;2022-07-06T03:56:38;14.30;99.90
56256;DHT22;57229;51.432;-2.598;2022-07-06T03:59:04;14.20;99.90
56256;DHT22;57229;51.432;-2.598;2022-07-06T04:01:30;14.10;99.90
56256;DHT22;57229;51.432;-2.598;2022-07-06T04:03:56;14.10;99.90
56256;DHT22;57229;51.432;-2.598;2022-07-06T04:06:22;14.10;99.90
56256;DHT22;57229;51.432;-2.598;2022-07-06T04:08:48;14.00;99.90
56256;DHT22;57229;51.432;-2.598;2022-07-06T04:11:13;13.90;99.90
56256;DHT22;57229;51.432;-2.598;2022-07-06T04:13:39;13.90;99.90
56256;DHT22;57229;51.432;-2.598;2022-07-06T04:16:06;13.80;99.90
56256;DHT22;57229;51.432;-2.598;2022-07-06T04:18:32;13.80;99.90
56256;DHT22;57229;51.432;-2.598;2022-07-06T04:20:57;13.80;99.90
56256;DHT22;57229;51.432;-2.598;2022-07-06T04:23:25;13.70;99.90
56256;DHT22;57229;51.432;-2.598;2022-07-06T04:25:50;13.70;99.90
56256;DHT22;57229;51.432;-2.598;2022-07-06T04:28:16;13.70;99.90
56256;DHT22;57229;51.432;-2.598;2022-07-06T04:30:42;13.70;99.90
56256;DHT22;57229;51.432;-2.598;2022-07-06T04:33:07;13.70;99.90
56256;DHT22;57229;51.432;-2.598;2022-07-06T04:35:33;13.70;99.90
56256;DHT22;57229;51.432;-2.598;2022-07-06T04:37:59;13.70;99.90
56256;DHT22;57229;51.432;-2.598;2022-07-06T04:40:25;13.70;99.90
56256;DHT22;57229;51.432;-2.598;2022-07-06T04:42:50;13.70;99.90
56256;DHT22;57229;51.432;-2.598;2022-07-06T04:45:16;13.80;99.90
56256;DHT22;57229;51.432;-2.598;2022-07-06T04:47:42;13.80;99.90
56256;DHT22;57229;51.432;-2.598;2022-07-06T04:50:09;13.90;99.90
56256;DHT22;57229;51.432;-2.598;2022-07-06T04:52:35;13.90;99.90
56256;DHT22;57229;51.432;-2.598;2022-07-06T04:55:01;14.10;99.90
56256;DHT22;57229;51.432;-2.598;2022-07-06T04:57:26;14.10;99.90
56256;DHT22;57229;51.432;-2.598;2022-07-06T04:59:54;14.30;99.90
56256;DHT22;57229;51.432;-2.598;2022-07-06T05:02:20;14.30;99.90
56256;DHT22;57229;51.432;-2.598;2022-07-06T05:04:46;14.30;99.90
56256;DHT22;57229;51.432;-2.598;2022-07-06T05:07:11;14.40;99.90
56256;DHT22;57229;51.432;-2.598;2022-07-06T05:09:37;14.40;99.90
56256;DHT22;57229;51.432;-2.598;2022-07-06T05:12:03;14.60;99.90
56256;DHT22;57229;51.432;-2.598;2022-07-06T05:14:29;14.70;99.90
56256;DHT22;57229;51.432;-2.598;2022-07-06T05:16:55;14.70;99.90
56256;DHT22;57229;51.432;-2.598;2022-07-06T05:19:20;14.80;99.90
56256;DHT22;57229;51.432;-2.598;2022-07-06T05:21:46;14.90;99.90
56256;DHT22;57229;51.432;-2.598;2022-07-06T05:24:12;14.90;99.90
56256;DHT22;57229;51.432;-2.598;2022-07-06T05:26:37;15.00;99.90
56256;DHT22;57229;51.432;-2.598;2022-07-06T05:29:03;15.10;99.90
56256;DHT22;57229;51.432;-2.598;2022-07-06T05:31:29;15.10;99.90
56256;DHT22;57229;51.432;-2.598;2022-07-06T05:33:54;15.10;99.90
56256;DHT22;57229;51.432;-2.598;2022-07-06T05:36:20;15.20;99.90
56256;DHT22;57229;51.432;-2.598;2022-07-06T05:38:46;15.30;99.90
56256;DHT22;57229;51.432;-2.598;2022-07-06T05:41:11;15.30;99.90
56256;DHT22;57229;51.432;-2.598;2022-07-06T05:43:37;15.40;99.90
56256;DHT22;57229;51.432;-2.598;2022-07-06T05:46:03;15.60;99.90
56256;DHT22;57229;51.432;-2.598;2022-07-06T05:48:29;15.70;99.90
56256;DHT22;57229;51.432;-2.598;2022-07-06T05:51:14;15.80;99.90
56256;DHT22;57229;51.432;-2.598;2022-07-06T05:53:39;15.90;99.90
56256;DHT22;57229;51.432;-2.598;2022-07-06T05:56:05;16.10;99.90
56256;DHT22;57229;51.432;-2.598;2022-07-06T05:58:31;16.30;99.90
56256;DHT22;57229;51.432;-2.598;2022-07-06T06:00:57;16.50;99.90
56256;DHT22;57229;51.432;-2.598;2022-07-06T06:03:22;16.70;99.90
56256;DHT22;57229;51.432;-2.598;2022-07-06T06:05:49;16.80;99.90
56256;DHT22;57229;51.432;-2.598;2022-07-06T06:08:14;16.90;99.90
56256;DHT22;57229;51.432;-2.598;2022-07-06T06:10:40;17.00;99.90
56256;DHT22;57229;51.432;-2.598;2022-07-06T06:13:06;17.00;99.90
56256;DHT22;57229;51.432;-2.598;2022-07-06T06:15:31;17.10;99.90
56256;DHT22;57229;51.432;-2.598;2022-07-06T06:17:57;17.20;99.90
56256;DHT22;57229;51.432;-2.598;2022-07-06T06:20:23;17.20;99.90
56256;DHT22;57229;51.432;-2.598;2022-07-06T06:22:50;17.20;99.90
56256;DHT22;57229;51.432;-2.598;2022-07-06T06:25:21;17.20;99.90
56256;DHT22;57229;51.432;-2.598;2022-07-06T06:27:52;17.20;99.90
56256;DHT22;57229;51.432;-2.598;2022-07-06T06:30:17;17.30;99.90
56256;DHT22;57229;51.432;-2.598;2022-07-06T06:32:43;17.40;99.90
56256;DHT22;57229;51.432;-2.598;2022-07-06T06:35:09;17.40;99.90
56256;DHT22;57229;51.432;-2.598;2022-07-06T06:37:34;17.30;99.90
56256;DHT22;57229;51.432;-2.598;2022-07-06T06:40:01;17.30;99.90
56256;DHT22;57229;51.432;-2.598;2022-07-06T06:42:26;17.40;99.90
56256;DHT22;57229;51.432;-2.598;2022-07-06T06:44:52;17.50;99.90
56256;DHT22;57229;51.432;-2.598;2022-07-06T06:47:18;17.70;99.90
56256;DHT22;57229;51.432;-2.598;2022-07-06T06:49:44;17.90;99.90
56256;DHT22;57229;51.432;-2.598;2022-07-06T06:52:10;18.00;99.90
56256;DHT22;57229;51.432;-2.598;2022-07-06T06:54:36;18.20;99.90
56256;DHT22;57229;51.432;-2.598;2022-07-06T06:57:01;18.40;99.90
56256;DHT22;57229;51.432;-2.598;2022-07-06T06:59:27;18.50;99.90
56256;DHT22;57229;51.432;-2.598;2022-07-06T07:01:53;18.60;99.90
56256;DHT22;57229;51.432;-2.598;2022-07-06T07:04:18;18.80;99.90
56256;DHT22;57229;51.432;-2.598;2022-07-06T07:06:44;19.10;99.90
56256;DHT22;57229;51.432;-2.598;2022-07-06T07:09:09;19.30;99.90
56256;DHT22;57229;51.432;-2.598;2022-07-06T07:11:35;19.50;99.90
56256;DHT22;57229;51.432;-2.598;2022-07-06T07:14:01;19.70;99.90
56256;DHT22;57229;51.432;-2.598;2022-07-06T07:16:27;19.80;99.90
56256;DHT22;57229;51.432;-2.598;2022-07-06T07:18:53;20.00;99.90
56256;DHT22;57229;51.432;-2.598;2022-07-06T07:21:19;20.30;99.90
56256;DHT22;57229;51.432;-2.598;2022-07-06T07:23:45;20.50;99.90
56256;DHT22;57229;51.432;-2.598;2022-07-06T07:26:11;20.50;99.90
56256;DHT22;57229;51.432;-2.598;2022-07-06T07:28:36;20.50;99.90
56256;DHT22;57229;51.432;-2.598;2022-07-06T07:31:02;20.40;99.90
56256;DHT22;57229;51.432;-2.598;2022-07-06T07:33:28;20.00;99.90
56256;DHT22;57229;51.432;-2.598;2022-07-06T07:35:54;19.70;99.90
56256;DHT22;57229;51.432;-2.598;2022-07-06T07:38:19;19.40;99.90
56256;DHT22;57229;51.432;-2.598;2022-07-06T07:40:45;19.30;99.90
56256;DHT22;57229;51.432;-2.598;2022-07-06T07:43:10;19.00;99.90
56256;DHT22;57229;51.432;-2.598;2022-07-06T07:45:37;19.00;99.90
56256;DHT22;57229;51.432;-2.598;2022-07-06T07:48:03;19.20;99.90
56256;DHT22;57229;51.432;-2.598;2022-07-06T07:50:28;19.40;99.90
56256;DHT22;57229;51.432;-2.598;2022-07-06T07:52:55;19.40;99.90
56256;DHT22;57229;51.432;-2.598;2022-07-06T07:55:20;19.60;99.90
56256;DHT22;57229;51.432;-2.598;2022-07-06T07:57:46;20.40;99.90
56256;DHT22;57229;51.432;-2.598;2022-07-06T08:00:13;20.20;99.90
56256;DHT22;57229;51.432;-2.598;2022-07-06T08:02:38;20.60;99.90
56256;DHT22;57229;51.432;-2.598;2022-07-06T08:05:05;21.00;99.90
56256;DHT22;57229;51.432;-2.598;2022-07-06T08:07:30;21.40;99.90
56256;DHT22;57229;51.432;-2.598;2022-07-06T08:09:56;21.80;99.90
56256;DHT22;57229;51.432;-2.598;2022-07-06T08:12:22;22.30;99.90
56256;DHT22;57229;51.432;-2.598;2022-07-06T08:14:48;22.50;99.90
56256;DHT22;57229;51.432;-2.598;2022-07-06T08:17:13;22.80;99.90
56256;DHT22;57229;51.432;-2.598;2022-07-06T08:19:39;22.90;99.90
56256;DHT22;57229;51.432;-2.598;2022-07-06T08:22:05;23.00;99.80
56256;DHT22;57229;51.432;-2.598;2022-07-06T08:24:35;22.90;99.60
56256;DHT22;57229;51.432;-2.598;2022-07-06T08:27:01;22.60;99.90
56256;DHT22;57229;51.432;-2.598;2022-07-06T08:29:28;22.30;99.90
56256;DHT22;57229;51.432;-2.598;2022-07-06T08:31:54;22.00;99.90
56256;DHT22;57229;51.432;-2.598;2022-07-06T08:34:19;21.80;99.90
56256;DHT22;57229;51.432;-2.598;2022-07-06T08:36:45;21.80;99.90
56256;DHT22;57229;51.432;-2.598;2022-07-06T08:39:11;21.70;99.90
56256;DHT22;57229;51.432;-2.598;2022-07-06T08:41:36;21.60;99.90
56256;DHT22;57229;51.432;-2.598;2022-07-06T08:44:04;21.50;99.90
56256;DHT22;57229;51.432;-2.598;2022-07-06T08:46:30;21.60;99.90
56256;DHT22;57229;51.432;-2.598;2022-07-06T08:48:57;22.00;99.90
56256;DHT22;57229;51.432;-2.598;2022-07-06T08:51:24;22.40;99.90
56256;DHT22;57229;51.432;-2.598;2022-07-06T08:53:50;22.50;99.90
56256;DHT22;57229;51.432;-2.598;2022-07-06T08:56:18;22.10;99.90
56256;DHT22;57229;51.432;-2.598;2022-07-06T08:58:44;22.20;99.90
56256;DHT22;57229;51.432;-2.598;2022-07-06T09:01:10;22.00;99.90
56256;DHT22;57229;51.432;-2.598;2022-07-06T09:03:36;22.20;99.90
56256;DHT22;57229;51.432;-2.598;2022-07-06T09:06:04;22.70;99.90
56256;DHT22;57229;51.432;-2.598;2022-07-06T09:08:32;22.70;99.50
56256;DHT22;57229;51.432;-2.598;2022-07-06T09:10:58;22.90;99.20
56256;DHT22;57229;51.432;-2.598;2022-07-06T09:13:23;23.30;98.40
56256;DHT22;57229;51.432;-2.598;2022-07-06T09:15:49;23.40;97.60
56256;DHT22;57229;51.432;-2.598;2022-07-06T09:18:15;23.80;97.80
56256;DHT22;57229;51.432;-2.598;2022-07-06T09:20:42;24.60;96.60
56256;DHT22;57229;51.432;-2.598;2022-07-06T09:23:08;25.00;95.50
56256;DHT22;57229;51.432;-2.598;2022-07-06T09:25:35;25.00;95.20
56256;DHT22;57229;51.432;-2.598;2022-07-06T09:28:01;24.80;94.60
56256;DHT22;57229;51.432;-2.598;2022-07-06T09:30:28;24.30;95.90
56256;DHT22;57229;51.432;-2.598;2022-07-06T09:32:56;24.40;95.40
56256;DHT22;57229;51.432;-2.598;2022-07-06T09:35:30;24.60;95.10
56256;DHT22;57229;51.432;-2.598;2022-07-06T09:38:07;24.70;94.50
56256;DHT22;57229;51.432;-2.598;2022-07-06T09:40:47;24.80;93.70
56256;DHT22;57229;51.432;-2.598;2022-07-06T09:43:21;25.00;93.50
56256;DHT22;57229;51.432;-2.598;2022-07-06T09:45:55;25.00;93.60
56256;DHT22;57229;51.432;-2.598;2022-07-06T09:48:26;25.10;93.20
56256;DHT22;57229;51.432;-2.598;2022-07-06T09:50:57;25.70;93.30
56256;DHT22;57229;51.432;-2.598;2022-07-06T09:53:26;25.30;93.10
56256;DHT22;57229;51.432;-2.598;2022-07-06T09:55:54;24.80;93.60
56256;DHT22;57229;51.432;-2.598;2022-07-06T09:58:21;24.60;94.90
56256;DHT22;57229;51.432;-2.598;2022-07-06T10:00:48;25.00;94.00
56256;DHT22;57229;51.432;-2.598;2022-07-06T10:03:15;25.00;93.30
56256;DHT22;57229;51.432;-2.598;2022-07-06T10:05:43;24.80;93.60
56256;DHT22;57229;51.432;-2.598;2022-07-06T10:08:11;25.00;93.30
56256;DHT22;57229;51.432;-2.598;2022-07-06T10:10:39;24.80;93.30
56256;DHT22;57229;51.432;-2.598;2022-07-06T10:13:06;25.20;93.90
56256;DHT22;57229;51.432;-2.598;2022-07-06T10:15:32;24.90;95.10
56256;DHT22;57229;51.432;-2.598;2022-07-06T10:18:04;26.00;93.80
56256;DHT22;57229;51.432;-2.598;2022-07-06T10:20:36;27.00;92.20
56256;DHT22;57229;51.432;-2.598;2022-07-06T10:23:24;27.10;91.90
56256;DHT22;57229;51.432;-2.598;2022-07-06T10:29:23;27.50;91.10
56256;DHT22;57229;51.432;-2.598;2022-07-06T10:31:53;27.10;91.40
56256;DHT22;57229;51.432;-2.598;2022-07-06T10:34:19;26.90;91.50
56256;DHT22;57229;51.432;-2.598;2022-07-06T10:36:52;26.00;92.40
56256;DHT22;57229;51.432;-2.598;2022-07-06T10:39:38;25.80;94.00
56256;DHT22;57229;51.432;-2.598;2022-07-06T10:42:46;26.30;92.70
56256;DHT22;57229;51.432;-2.598;2022-07-06T10:45:20;26.30;92.10
56256;DHT22;57229;51.432;-2.598;2022-07-06T10:47:58;26.60;92.00
56256;DHT22;57229;51.432;-2.598;2022-07-06T10:50:46;27.30;91.50
56256;DHT22;57229;51.432;-2.598;2022-07-06T10:56:45;28.70;87.30
56256;DHT22;57229;51.432;-2.598;2022-07-06T11:01:39;29.50;84.40
56256;DHT22;57229;51.432;-2.598;2022-07-06T11:04:07;30.00;83.20
56256;DHT22;57229;51.432;-2.598;2022-07-06T11:06:39;30.60;80.80
56256;DHT22;57229;51.432;-2.598;2022-07-06T11:12:36;28.30;83.10
56256;DHT22;57229;51.432;-2.598;2022-07-06T11:15:02;27.60;85.10
56256;DHT22;57229;51.432;-2.598;2022-07-06T11:17:29;27.80;83.70
56256;DHT22;57229;51.432;-2.598;2022-07-06T11:20:09;27.10;85.10
56256;DHT22;57229;51.432;-2.598;2022-07-06T11:22:36;26.80;84.90
56256;DHT22;57229;51.432;-2.598;2022-07-06T11:25:02;26.80;87.70
56256;DHT22;57229;51.432;-2.598;2022-07-06T11:27:33;27.10;83.50
56256;DHT22;57229;51.432;-2.598;2022-07-06T11:30:03;27.80;81.40
56256;DHT22;57229;51.432;-2.598;2022-07-06T11:32:35;27.70;81.80
56256;DHT22;57229;51.432;-2.598;2022-07-06T11:35:04;27.60;82.40
56256;DHT22;57229;51.432;-2.598;2022-07-06T11:37:30;27.00;83.90
56256;DHT22;57229;51.432;-2.598;2022-07-06T11:39:56;27.20;83.30
56256;DHT22;57229;51.432;-2.598;2022-07-06T11:42:21;27.00;81.00
56256;DHT22;57229;51.432;-2.598;2022-07-06T11:44:47;26.70;83.40
56256;DHT22;57229;51.432;-2.598;2022-07-06T11:47:13;26.40;84.00
56256;DHT22;57229;51.432;-2.598;2022-07-06T11:49:41;26.50;84.80
56256;DHT22;57229;51.432;-2.598;2022-07-06T11:52:08;27.20;82.70
56256;DHT22;57229;51.432;-2.598;2022-07-06T11:54:34;27.20;81.80
56256;DHT22;57229;51.432;-2.598;2022-07-06T11:57:00;26.70;83.20
56256;DHT22;57229;51.432;-2.598;2022-07-06T11:59:33;26.20;85.50
56256;DHT22;57229;51.432;-2.598;2022-07-06T12:02:05;26.60;85.10
56256;DHT22;57229;51.432;-2.598;2022-07-06T12:04:34;26.30;84.90
56256;DHT22;57229;51.432;-2.598;2022-07-06T12:07:01;27.30;83.40
56256;DHT22;57229;51.432;-2.598;2022-07-06T12:09:32;28.00;82.90
56256;DHT22;57229;51.432;-2.598;2022-07-06T12:12:19;28.20;82.20
56256;DHT22;57229;51.432;-2.598;2022-07-06T12:15:06;28.00;82.60
56256;DHT22;57229;51.432;-2.598;2022-07-06T12:17:32;27.40;84.60
56256;DHT22;57229;51.432;-2.598;2022-07-06T12:20:00;27.90;84.00
56256;DHT22;57229;51.432;-2.598;2022-07-06T12:22:45;29.20;80.50
56256;DHT22;57229;51.432;-2.598;2022-07-06T12:25:11;28.80;81.00
56256;DHT22;57229;51.432;-2.598;2022-07-06T12:27:37;28.10;83.10
56256;DHT22;57229;51.432;-2.598;2022-07-06T12:30:09;27.70;83.80
56256;DHT22;57229;51.432;-2.598;2022-07-06T12:32:36;27.20;85.50
56256;DHT22;57229;51.432;-2.598;2022-07-06T12:35:18;26.70;86.60
56256;DHT22;57229;51.432;-2.598;2022-07-06T12:37:58;26.90;86.60
56256;DHT22;57229;51.432;-2.598;2022-07-06T12:41:07;27.10;85.10
56256;DHT22;57229;51.432;-2.598;2022-07-06T12:43:39;26.50;87.30
56256;DHT22;57229;51.432;-2.598;2022-07-06T12:46:38;26.90;86.10
56256;DHT22;57229;51.432;-2.598;2022-07-06T12:49:19;26.90;86.40
56256;DHT22;57229;51.432;-2.598;2022-07-06T12:51:50;27.20;85.50
56256;DHT22;57229;51.432;-2.598;2022-07-06T12:54:30;28.40;83.50
56256;DHT22;57229;51.432;-2.598;2022-07-06T12:57:26;29.60;81.70
56256;DHT22;57229;51.432;-2.598;2022-07-06T13:00:12;30.00;81.10
56256;DHT22;57229;51.432;-2.598;2022-07-06T13:02:38;29.30;81.30
56256;DHT22;57229;51.432;-2.598;2022-07-06T13:05:15;29.10;81.60
56256;DHT22;57229;51.432;-2.598;2022-07-06T13:08:12;29.40;80.80
56256;DHT22;57229;51.432;-2.598;2022-07-06T13:10:59;29.30;82.10
56256;DHT22;57229;51.432;-2.598;2022-07-06T13:13:46;29.30;82.10
56256;DHT22;57229;51.432;-2.598;2022-07-06T13:16:26;30.20;79.60
56256;DHT22;57229;51.432;-2.598;2022-07-06T13:19:09;29.60;80.00
56256;DHT22;57229;51.432;-2.598;2022-07-06T13:22:12;29.70;81.20
56256;DHT22;57229;51.432;-2.598;2022-07-06T13:24:44;30.40;78.60
56256;DHT22;57229;51.432;-2.598;2022-07-06T13:27:32;29.80;78.60
56256;DHT22;57229;51.432;-2.598;2022-07-06T13:29:58;29.30;80.50
56256;DHT22;57229;51.432;-2.598;2022-07-06T13:32:25;30.30;79.00
56256;DHT22;57229;51.432;-2.598;2022-07-06T13:34:55;31.00;77.20
56256;DHT22;57229;51.432;-2.598;2022-07-06T13:37:36;31.10;77.20
56256;DHT22;57229;51.432;-2.598;2022-07-06T13:40:04;30.70;76.60
56256;DHT22;57229;51.432;-2.598;2022-07-06T13:42:45;30.70;77.00
56256;DHT22;57229;51.432;-2.598;2022-07-06T13:45:35;31.20;76.50
56256;DHT22;57229;51.432;-2.598;2022-07-06T13:51:43;31.50;75.00
56256;DHT22;57229;51.432;-2.598;2022-07-06T13:54:13;30.70;75.60
56256;DHT22;57229;51.432;-2.598;2022-07-06T13:57:02;30.30;77.20
56256;DHT22;57229;51.432;-2.598;2022-07-06T13:59:38;30.40;76.60
56256;DHT22;57229;51.432;-2.598;2022-07-06T14:02:05;30.40;77.10
56256;DHT22;57229;51.432;-2.598;2022-07-06T14:04:40;30.50;76.10
56256;DHT22;57229;51.432;-2.598;2022-07-06T14:07:12;30.50;76.30
56256;DHT22;57229;51.432;-2.598;2022-07-06T14:09:39;31.30;75.10
56256;DHT22;57229;51.432;-2.598;2022-07-06T14:12:06;31.30;74.70
56256;DHT22;57229;51.432;-2.598;2022-07-06T14:14:32;30.90;75.70
56256;DHT22;57229;51.432;-2.598;2022-07-06T14:17:02;30.60;75.20
56256;DHT22;57229;51.432;-2.598;2022-07-06T14:19:43;28.90;78.40
56256;DHT22;57229;51.432;-2.598;2022-07-06T14:22:12;28.50;80.90
56256;DHT22;57229;51.432;-2.598;2022-07-06T14:24:38;28.80;79.20
56256;DHT22;57229;51.432;-2.598;2022-07-06T14:27:04;29.10;78.80
56256;DHT22;57229;51.432;-2.598;2022-07-06T14:29:29;30.30;76.60
56256;DHT22;57229;51.432;-2.598;2022-07-06T14:32:29;30.40;75.90
56256;DHT22;57229;51.432;-2.598;2022-07-06T14:35:05;31.30;74.80
56256;DHT22;57229;51.432;-2.598;2022-07-06T14:37:47;30.70;75.00
56256;DHT22;57229;51.432;-2.598;2022-07-06T14:40:23;29.90;76.70
56256;DHT22;57229;51.432;-2.598;2022-07-06T14:42:53;30.50;76.60
56256;DHT22;57229;51.432;-2.598;2022-07-06T14:45:43;31.20;74.90
56256;DHT22;57229;51.432;-2.598;2022-07-06T14:48:47;31.40;73.90
56256;DHT22;57229;51.432;-2.598;2022-07-06T14:51:25;31.90;73.50
56256;DHT22;57229;51.432;-2.598;2022-07-06T14:55:00;31.30;74.50
56256;DHT22;57229;51.432;-2.598;2022-07-06T14:57:40;31.40;73.80
56256;DHT22;57229;51.432;-2.598;2022-07-06T15:00:10;30.90;74.40
56256;DHT22;57229;51.432;-2.598;2022-07-06T15:02:48;30.80;74.10
56256;DHT22;57229;51.432;-2.598;2022-07-06T15:05:15;30.40;74.90
56256;DHT22;57229;51.432;-2.598;2022-07-06T15:08:15;30.60;74.40
56256;DHT22;57229;51.432;-2.598;2022-07-06T15:10:56;30.10;74.60
56256;DHT22;57229;51.432;-2.598;2022-07-06T15:13:21;29.50;76.10
56256;DHT22;57229;51.432;-2.598;2022-07-06T15:15:58;28.90;77.40
56256;DHT22;57229;51.432;-2.598;2022-07-06T15:18:58;29.00;77.80
56256;DHT22;57229;51.432;-2.598;2022-07-06T15:21:36;29.40;77.40
56256;DHT22;57229;51.432;-2.598;2022-07-06T15:24:02;29.80;76.30
56256;DHT22;57229;51.432;-2.598;2022-07-06T15:26:28;29.40;77.10
56256;DHT22;57229;51.432;-2.598;2022-07-06T15:28:55;29.50;77.40
56256;DHT22;57229;51.432;-2.598;2022-07-06T15:31:41;29.50;76.00
56256;DHT22;57229;51.432;-2.598;2022-07-06T15:34:46;29.40;76.70
56256;DHT22;57229;51.432;-2.598;2022-07-06T15:40:57;30.20;74.50
56256;DHT22;57229;51.432;-2.598;2022-07-06T15:43:27;30.90;74.00
56256;DHT22;57229;51.432;-2.598;2022-07-06T15:46:15;31.50;72.40
56256;DHT22;57229;51.432;-2.598;2022-07-06T15:49:03;31.90;70.90
56256;DHT22;57229;51.432;-2.598;2022-07-06T15:51:51;31.30;71.50